Time;durP1;ratioP1;P1;durP2;ratioP2;P2;SDS_P1;SDS_P2;PMS_P1;PMS_P2;Temp;Humidity;BMP_temperature;BMP_pressure;BME280_temperature;BME280_humidity;BME280_pressure;Samples;Min_cycle;Max_cycle;Signal;HPM_P1;HPM_P2
2024/02/01 00:00:22;;;;;;;0.30;0.30;;;2.80;99.90;;;;;;5127450;27;20210;-83
2024/02/01 00:02:47;;;;;;;0.30;0.20;;;2.80;99.90;;;;;;5127224;27;20191;-78
2024/02/01 00:05:13;;;;;;;2.50;2.43;;;2.80;99.90;;;;;;5111281;28;20183;-82
2024/02/01 00:07:39;;;;;;;0.30;0.30;;;2.70;99.90;;;;;;5111702;28;20219;-82
2024/02/01 00:10:05;;;;;;;0.30;0.20;;;2.70;99.90;;;;;;5111210;28;20178;-78
2024/02/01 00:12:31;;;;;;;0.30;0.20;;;2.70;99.90;;;;;;5112020;28;20184;-83
2024/02/01 00:14:56;;;;;;;0.30;0.20;;;2.70;99.90;;;;;;5111676;28;20172;-82
2024/02/01 00:17:22;;;;;;;0.30;0.20;;;2.70;99.90;;;;;;5111585;28;20396;-82
2024/02/01 00:19:48;;;;;;;0.30;0.30;;;2.70;99.90;;;;;;5126922;27;20180;-81
2024/02/01 00:22:14;;;;;;;0.30;0.30;;;2.60;99.90;;;;;;5111973;28;20271;-83
2024/02/01 00:24:39;;;;;;;0.30;0.20;;;2.60;99.90;;;;;;5127040;27;20298;-79
2024/02/01 00:27:05;;;;;;;6.07;2.73;;;2.50;99.90;;;;;;5127238;27;20966;-78
2024/02/01 00:29:30;;;;;;;0.30;0.30;;;2.50;99.90;;;;;;5127037;27;20551;-82
2024/02/01 00:31:56;;;;;;;0.30;0.20;;;2.50;99.90;;;;;;5127195;27;20586;-82
2024/02/01 00:34:22;;;;;;;0.30;0.30;;;2.50;99.90;;;;;;5127036;27;20215;-82
2024/02/01 00:36:48;;;;;;;0.30;0.20;;;2.50;99.90;;;;;;5127103;27;20184;-82
2024/02/01 00:39:14;;;;;;;0.30;0.30;;;2.40;99.90;;;;;;5126749;27;20203;-83
2024/02/01 00:41:39;;;;;;;0.30;0.20;;;2.40;99.90;;;;;;5111341;28;20656;-78
2024/02/01 00:44:05;;;;;;;0.30;0.30;;;2.40;99.90;;;;;;5126889;27;20956;-82
2024/02/01 00:46:31;;;;;;;0.30;0.20;;;2.40;99.90;;;;;;5110645;28;20192;-82
2024/02/01 00:48:56;;;;;;;0.30;0.20;;;2.40;99.90;;;;;;5110872;28;20758;-78
2024/02/01 00:51:22;;;;;;;0.30;0.20;;;2.40;99.90;;;;;;5110543;28;20610;-78
2024/02/01 00:53:48;;;;;;;0.30;0.30;;;2.40;99.90;;;;;;5110865;28;20206;-82
2024/02/01 00:56:13;;;;;;;0.30;0.20;;;2.40;99.90;;;;;;5110609;28;20184;-82
2024/02/01 00:58:39;;;;;;;0.30;0.20;;;2.40;99.90;;;;;;5109723;28;20294;-82
2024/02/01 01:01:05;;;;;;;0.30;0.30;;;2.40;99.90;;;;;;5110605;27;20216;-82
2024/02/01 01:03:30;;;;;;;0.30;0.20;;;2.40;99.90;;;;;;5126742;27;20295;-78
2024/02/01 01:05:56;;;;;;;0.30;0.20;;;2.40;99.90;;;;;;5110066;28;20184;-82
2024/02/01 01:08:22;;;;;;;0.30;0.30;;;2.40;99.90;;;;;;5126414;27;20199;-82
2024/02/01 01:10:47;;;;;;;0.30;0.20;;;2.40;99.90;;;;;;5110617;28;20569;-82
2024/02/01 01:13:13;;;;;;;0.30;0.30;;;2.40;99.90;;;;;;5110763;28;20211;-81
2024/02/01 01:15:39;;;;;;;0.30;0.20;;;2.50;99.90;;;;;;5125808;27;20223;-78
2024/02/01 01:18:05;;;;;;;0.30;0.20;;;2.50;99.90;;;;;;5109886;28;20248;-78
2024/02/01 01:20:30;;;;;;;0.30;0.20;;;2.40;99.90;;;;;;5125740;27;21008;-82
2024/02/01 01:22:56;;;;;;;0.30;0.20;;;2.40;99.90;;;;;;5126648;27;20810;-83
2024/02/01 01:25:21;;;;;;;0.30;0.20;;;2.40;99.90;;;;;;5110156;28;20175;-81
2024/02/01 01:27:48;;;;;;;0.30;0.20;;;2.40;99.90;;;;;;5110292;28;20685;-82
2024/02/01 01:30:13;;;;;;;1.10;1.08;;;2.40;99.90;;;;;;5109914;28;20175;-82
2024/02/01 01:32:39;;;;;;;0.30;0.20;;;2.40;99.90;;;;;;5110196;28;20664;-78
2024/02/01 01:35:05;;;;;;;0.30;0.20;;;2.40;99.90;;;;;;5110013;28;20640;-78
2024/02/01 01:37:32;;;;;;;0.30;0.20;;;2.40;99.90;;;;;;5110127;28;20617;-78
2024/02/01 01:39:58;;;;;;;0.30;0.30;;;2.30;99.90;;;;;;5109679;28;20407;-78
2024/02/01 01:42:24;;;;;;;0.30;0.20;;;2.30;99.90;;;;;;5125947;27;20183;-78
2024/02/01 01:44:49;;;;;;;0.30;0.30;;;2.30;99.90;;;;;;5125845;27;20420;-78
2024/02/01 01:47:15;;;;;;;0.30;0.30;;;2.30;99.90;;;;;;5110464;28;20176;-82
2024/02/01 01:49:42;;;;;;;0.30;0.30;;;2.30;99.90;;;;;;5125773;27;20690;-82
2024/02/01 01:52:09;;;;;;;0.30;0.30;;;2.30;99.90;;;;;;5109822;28;20338;-79
2024/02/01 01:54:37;;;;;;;0.30;0.20;;;2.30;99.90;;;;;;5108279;28;20196;-78
2024/02/01 01:57:04;;;;;;;0.30;0.28;;;2.30;99.90;;;;;;5110054;28;20223;-78
2024/02/01 01:59:30;;;;;;;0.30;0.28;;;2.30;99.90;;;;;;5124878;28;20299;-78
2024/02/01 02:01:57;;;;;;;0.30;0.30;;;2.30;99.90;;;;;;5125640;28;20653;-82
2024/02/01 02:04:23;;;;;;;0.30;0.30;;;2.30;99.90;;;;;;5109777;28;20191;-78
2024/02/01 02:06:55;;;;;;;0.30;0.30;;;2.20;99.90;;;;;;5109975;28;20250;-78
2024/02/01 02:09:24;;;;;;;0.30;0.20;;;2.20;99.90;;;;;;5125504;28;20361;-78
2024/02/01 02:11:49;;;;;;;0.30;0.30;;;2.20;99.90;;;;;;5125335;28;20184;-78
2024/02/01 02:14:16;;;;;;;0.30;0.20;;;2.10;99.90;;;;;;5125439;28;20236;-82
2024/02/01 02:16:43;;;;;;;0.30;0.20;;;2.10;99.90;;;;;;5109875;28;20354;-78
2024/02/01 02:19:11;;;;;;;0.30;0.22;;;2.10;99.90;;;;;;5124711;28;20199;-78
2024/02/01 02:21:43;;;;;;;0.30;0.30;;;2.10;99.90;;;;;;5109904;28;20706;-82
2024/02/01 02:24:09;;;;;;;0.30;0.30;;;2.10;99.90;;;;;;5109295;28;20574;-78
2024/02/01 02:26:35;;;;;;;0.30;0.30;;;2.10;99.90;;;;;;5110763;28;20203;-82
2024/02/01 02:29:02;;;;;;;0.30;0.20;;;2.10;99.90;;;;;;5113905;28;20191;-78
2024/02/01 02:31:28;;;;;;;0.30;0.30;;;2.10;99.90;;;;;;5129611;27;20187;-82
2024/02/01 02:33:54;;;;;;;0.30;0.30;;;2.10;99.90;;;;;;5129221;27;20196;-82
2024/02/01 02:36:20;;;;;;;0.30;0.30;;;2.00;99.90;;;;;;5129351;27;20191;-78
2024/02/01 02:38:46;;;;;;;0.30;0.30;;;2.00;99.90;;;;;;5129325;27;20199;-82
2024/02/01 02:41:11;;;;;;;0.30;0.20;;;2.00;99.90;;;;;;5129067;27;20271;-82
2024/02/01 02:43:37;;;;;;;0.30;0.20;;;2.00;99.90;;;;;;5113643;28;20267;-83
2024/02/01 02:46:03;;;;;;;0.30;0.20;;;1.90;99.90;;;;;;5128909;27;20219;-83
2024/02/01 02:48:29;;;;;;;0.30;0.20;;;1.90;99.90;;;;;;5129232;27;20202;-78
2024/02/01 02:50:54;;;;;;;0.30;0.20;;;1.90;99.90;;;;;;5128966;27;20436;-82
2024/02/01 02:53:20;;;;;;;0.30;0.30;;;1.90;99.90;;;;;;5113345;28;20215;-78
2024/02/01 02:55:46;;;;;;;0.30;0.30;;;1.80;99.90;;;;;;5128881;27;20428;-78
2024/02/01 02:58:11;;;;;;;0.30;0.23;;;1.90;99.90;;;;;;5129033;27;20572;-82
2024/02/01 03:00:37;;;;;;;0.30;0.30;;;1.80;99.90;;;;;;5127886;27;20427;-78
2024/02/01 03:03:04;;;;;;;0.30;0.23;;;1.80;99.90;;;;;;5112785;28;20199;-78
2024/02/01 03:05:29;;;;;;;0.30;0.20;;;1.70;99.90;;;;;;5112848;28;20187;-83
2024/02/01 03:07:55;;;;;;;0.30;0.30;;;1.70;99.90;;;;;;5112860;28;20231;-78
2024/02/01 03:10:21;;;;;;;0.30;0.20;;;1.60;99.90;;;;;;5128335;27;20435;-82
2024/02/01 03:12:47;;;;;;;0.30;0.20;;;1.60;99.90;;;;;;5112810;28;20199;-78
2024/02/01 03:15:13;;;;;;;0.30;0.30;;;1.60;99.90;;;;;;5128370;27;20715;-78
2024/02/01 03:17:40;;;;;;;0.30;0.20;;;1.50;99.90;;;;;;5128771;27;20439;-78
2024/02/01 03:20:17;;;;;;;0.30;0.20;;;1.50;99.90;;;;;;5127363;27;20452;-78
2024/02/01 03:22:46;;;;;;;0.30;0.30;;;1.60;99.90;;;;;;5128827;27;20753;-82
2024/02/01 03:25:12;;;;;;;0.30;0.20;;;1.60;99.90;;;;;;5112449;28;20171;-78
2024/02/01 03:27:43;;;;;;;0.30;0.30;;;1.60;99.90;;;;;;5128601;27;20199;-78
2024/02/01 03:30:11;;;;;;;0.30;0.28;;;1.60;99.90;;;;;;5112572;28;20191;-78
2024/02/01 03:32:38;;;;;;;0.30;0.30;;;1.60;99.90;;;;;;5128386;27;20183;-82
2024/02/01 03:35:04;;;;;;;0.30;0.30;;;1.60;99.90;;;;;;5127811;27;20172;-82
2024/02/01 03:37:30;;;;;;;0.30;0.30;;;1.60;99.90;;;;;;5128416;27;20341;-78
2024/02/01 03:39:56;;;;;;;0.30;0.30;;;1.60;99.90;;;;;;5112036;28;20453;-78
2024/02/01 03:42:22;;;;;;;0.30;0.20;;;1.60;99.90;;;;;;5112217;28;20641;-83
2024/02/01 03:44:48;;;;;;;2.60;2.50;;;1.50;99.90;;;;;;5128404;27;20175;-81
2024/02/01 03:47:13;;;;;;;0.30;0.30;;;1.50;99.90;;;;;;5128499;27;20716;-82
2024/02/01 03:49:40;;;;;;;0.30;0.20;;;1.50;99.90;;;;;;5127832;27;20204;-82
2024/02/01 03:52:09;;;;;;;0.30;0.30;;;1.40;99.90;;;;;;5112114;28;20172;-85
2024/02/01 03:54:36;;;;;;;0.30;0.30;;;1.40;99.90;;;;;;5128069;27;20234;-80
2024/02/01 03:57:02;;;;;;;0.30;0.20;;;1.40;99.90;;;;;;5128073;27;20211;-82
2024/02/01 03:59:29;;;;;;;1.33;1.33;;;1.30;99.90;;;;;;5128028;27;20223;-79
2024/02/01 04:01:55;;;;;;;0.30;0.20;;;1.30;99.90;;;;;;5127768;27;20619;-82
2024/02/01 04:04:21;;;;;;;0.30;0.20;;;1.30;99.90;;;;;;5127100;27;20286;-82
2024/02/01 04:06:51;;;;;;;0.30;0.30;;;1.30;99.90;;;;;;5127153;27;20483;-82
2024/02/01 04:09:18;;;;;;;0.30;0.20;;;1.30;99.90;;;;;;5111928;27;20650;-78
2024/02/01 04:11:43;;;;;;;0.30;0.30;;;1.30;99.90;;;;;;5112055;28;20533;-78
2024/02/01 04:14:09;;;;;;;0.30;0.20;;;1.30;99.90;;;;;;5111366;28;20192;-82
2024/02/01 04:16:35;;;;;;;0.30;0.30;;;1.30;99.90;;;;;;5111919;28;20209;-78
2024/02/01 04:19:01;;;;;;;0.30;0.20;;;1.40;99.90;;;;;;5111469;28;20871;-78
2024/02/01 04:21:27;;;;;;;0.30;0.30;;;1.40;99.90;;;;;;5126426;27;20748;-79
2024/02/01 04:23:53;;;;;;;0.32;0.30;;;1.50;99.90;;;;;;5111519;28;20180;-79
2024/02/01 04:26:19;;;;;;;1.23;1.23;;;1.60;99.90;;;;;;5126962;27;20179;-82
2024/02/01 04:28:45;;;;;;;0.30;0.20;;;1.60;99.90;;;;;;5111468;28;20812;-82
2024/02/01 04:31:11;;;;;;;0.30;0.30;;;1.70;99.90;;;;;;5126847;27;20187;-79
2024/02/01 04:33:40;;;;;;;0.30;0.20;;;1.80;99.90;;;;;;5111144;28;20451;-82
2024/02/01 04:36:09;;;;;;;0.30;0.20;;;1.80;99.90;;;;;;5110626;28;20180;-79
2024/02/01 04:38:38;;;;;;;0.30;0.30;;;1.90;99.90;;;;;;5109600;28;20236;-83
2024/02/01 04:41:07;;;;;;;0.30;0.20;;;1.90;99.90;;;;;;5110870;28;20243;-79
2024/02/01 04:43:33;;;;;;;0.30;0.30;;;1.90;99.90;;;;;;5111156;28;20219;-82
2024/02/01 04:45:59;;;;;;;0.30;0.30;;;1.80;99.90;;;;;;5126460;27;20615;-78
2024/02/01 04:48:25;;;;;;;0.30;0.30;;;1.80;99.90;;;;;;5126759;27;20432;-83
2024/02/01 04:50:50;;;;;;;0.30;0.30;;;1.80;99.90;;;;;;5110364;28;20225;-83
2024/02/01 04:53:16;;;;;;;0.30;0.30;;;1.80;99.90;;;;;;5110778;28;20521;-82
2024/02/01 04:55:42;;;;;;;0.30;0.30;;;1.70;99.90;;;;;;5110567;28;20659;-82
2024/02/01 04:58:07;;;;;;;0.30;0.30;;;1.70;99.90;;;;;;5126681;27;20541;-80
2024/02/01 05:00:33;;;;;;;0.30;0.20;;;1.70;99.90;;;;;;5126687;27;20276;-84
2024/02/01 05:02:59;;;;;;;0.30;0.20;;;1.70;99.90;;;;;;5110625;28;20490;-83
2024/02/01 05:05:25;;;;;;;0.30;0.20;;;1.70;99.90;;;;;;5110547;28;20175;-83
2024/02/01 05:07:51;;;;;;;0.30;0.20;;;1.60;99.90;;;;;;5108683;28;20215;-78
2024/02/01 05:10:17;;;;;;;0.30;0.30;;;1.60;99.90;;;;;;5124220;27;20172;-78
2024/02/01 05:12:43;;;;;;;0.30;0.30;;;1.60;99.90;;;;;;5124476;27;20558;-82
2024/02/01 05:15:11;;;;;;;1.83;1.73;;;1.60;99.90;;;;;;5125488;27;20782;-81
2024/02/01 05:17:37;;;;;;;16.60;16.00;;;1.60;99.90;;;;;;5125960;27;20224;-83
2024/02/01 05:20:15;;;;;;;0.30;0.30;;;1.60;99.90;;;;;;5107512;28;20176;-81
2024/02/01 05:22:42;;;;;;;0.30;0.20;;;1.60;99.90;;;;;;5125765;27;20348;-78
2024/02/01 05:25:19;;;;;;;0.35;0.25;;;1.60;99.90;;;;;;5110262;28;20616;-82
2024/02/01 05:27:52;;;;;;;0.30;0.20;;;1.70;99.90;;;;;;5109447;28;20210;-78
2024/02/01 05:30:22;;;;;;;0.52;0.52;;;1.70;99.90;;;;;;5105022;28;20220;-78
2024/02/01 05:32:51;;;;;;;0.30;0.20;;;1.80;99.90;;;;;;5106926;28;20192;-78
2024/02/01 05:35:30;;;;;;;0.30;0.20;;;1.80;99.90;;;;;;5101169;28;20562;-78
2024/02/01 05:38:00;;;;;;;0.30;0.20;;;1.80;99.90;;;;;;5096058;28;20561;-79
2024/02/01 05:40:26;;;;;;;0.30;0.25;;;1.80;99.90;;;;;;5100368;28;20200;-78
2024/02/01 05:42:52;;;;;;;0.30;0.30;;;1.80;99.90;;;;;;5105860;28;20669;-78
2024/02/01 05:45:22;;;;;;;0.30;0.30;;;1.80;99.90;;;;;;5102052;28;20183;-80
2024/02/01 05:47:51;;;;;;;0.30;0.30;;;1.80;99.90;;;;;;5096930;28;20204;-80
2024/02/01 05:50:16;;;;;;;0.30;0.30;;;1.90;99.90;;;;;;5100507;28;20171;-80
2024/02/01 05:52:42;;;;;;;20.43;19.67;;;1.90;99.90;;;;;;5098115;28;20257;-82
2024/02/01 05:55:10;;;;;;;0.30;0.20;;;1.90;99.90;;;;;;5100230;28;20179;-78
2024/02/01 05:57:37;;;;;;;0.30;0.20;;;1.90;99.90;;;;;;5120537;28;20207;-82
2024/02/01 06:00:06;;;;;;;0.30;0.30;;;1.80;99.90;;;;;;5102282;28;20211;-78
2024/02/01 06:02:33;;;;;;;0.82;0.82;;;1.80;99.90;;;;;;5119813;27;20203;-82
2024/02/01 06:04:59;;;;;;;0.30;0.20;;;1.80;99.90;;;;;;5108584;28;20178;-78
2024/02/01 06:07:27;;;;;;;0.30;0.20;;;1.80;99.90;;;;;;5122564;27;20314;-82
2024/02/01 06:09:53;;;;;;;0.30;0.20;;;1.80;99.90;;;;;;5111635;28;20509;-78
2024/02/01 06:12:19;;;;;;;0.30;0.30;;;1.70;99.90;;;;;;5113469;28;20182;-82
2024/02/01 06:14:44;;;;;;;0.30;0.30;;;1.70;99.90;;;;;;5118895;27;20407;-82
2024/02/01 06:17:10;;;;;;;0.30;0.30;;;1.70;99.90;;;;;;5109184;28;20718;-78
2024/02/01 06:19:36;;;;;;;0.30;0.20;;;1.70;99.90;;;;;;5111330;28;20253;-78
2024/02/01 06:22:06;;;;;;;0.30;0.20;;;1.70;99.90;;;;;;5128453;27;20866;-82
2024/02/01 06:24:34;;;;;;;0.30;0.30;;;1.70;99.90;;;;;;5111116;28;20831;-78
2024/02/01 06:27:01;;;;;;;0.30;0.20;;;1.70;99.90;;;;;;5126801;27;20315;-82
2024/02/01 06:29:27;;;;;;;0.30;0.30;;;1.80;99.90;;;;;;5103444;28;20200;-82
2024/02/01 06:31:52;;;;;;;0.30;0.30;;;1.80;99.90;;;;;;5108858;28;20717;-78
2024/02/01 06:34:26;;;;;;;0.30;0.30;;;1.80;99.90;;;;;;5106212;28;20441;-81
2024/02/01 06:36:58;;;;;;;0.30;0.20;;;1.90;99.90;;;;;;5090466;28;20436;-78
2024/02/01 06:42:04;;;;;;;0.30;0.20;;;1.90;99.90;;;;;;5105821;28;20219;-78
2024/02/01 06:44:31;;;;;;;0.30;0.20;;;1.90;99.90;;;;;;5095117;28;20221;-82
2024/02/01 06:52:13;;;;;;;0.30;0.30;;;2.00;99.90;;;;;;5105778;28;20270;-83
2024/02/01 07:03:13;;;;;;;0.85;0.85;;;2.00;99.90;;;;;;5106456;28;20606;-81
2024/02/01 07:08:26;;;;;;;0.30;0.30;;;2.10;99.90;;;;;;5101349;28;20231;-84
2024/02/01 07:11:14;;;;;;;0.30;0.30;;;2.20;99.90;;;;;;5090724;28;20188;-80
2024/02/01 07:16:24;;;;;;;0.30;0.20;;;2.30;99.90;;;;;;5097025;27;20172;-83
2024/02/01 08:00:17;;;;;;;0.60;0.60;;;5.80;99.90;;;;;;5100957;28;20648;-80
2024/02/01 08:02:50;;;;;;;1.15;1.15;;;5.80;99.90;;;;;;5094308;28;20209;-80
2024/02/01 08:08:05;;;;;;;0.30;0.30;;;5.90;99.90;;;;;;5103306;28;20336;-80
2024/02/01 08:10:31;;;;;;;0.30;0.20;;;6.30;99.90;;;;;;5103669;28;21018;-83
2024/02/01 08:13:07;;;;;;;0.40;0.20;;;6.50;99.90;;;;;;5102848;28;21124;-80
2024/02/01 08:15:37;;;;;;;13.15;8.40;;;6.60;99.90;;;;;;5095860;28;21228;-80
2024/02/01 08:18:10;;;;;;;0.30;0.20;;;6.50;99.90;;;;;;5103038;28;20200;-83
2024/02/01 08:20:39;;;;;;;1.33;1.33;;;6.30;99.90;;;;;;5097777;28;20223;-84
2024/02/01 08:23:06;;;;;;;0.30;0.20;;;6.10;99.90;;;;;;5092148;28;20268;-83
2024/02/01 08:25:32;;;;;;;0.30;0.20;;;6.00;99.90;;;;;;5097761;28;20184;-80
2024/02/01 08:27:58;;;;;;;1.05;1.05;;;6.00;99.90;;;;;;5103758;28;20249;-83
2024/02/01 08:30:32;;;;;;;0.30;0.20;;;5.80;99.90;;;;;;5100876;28;20164;-83
2024/02/01 08:33:03;;;;;;;0.30;0.20;;;5.60;99.90;;;;;;5097221;28;20365;-83
2024/02/01 08:35:33;;;;;;;0.30;0.20;;;5.50;99.90;;;;;;5094714;28;20184;-80
2024/02/01 08:38:03;;;;;;;0.30;0.20;;;5.40;99.90;;;;;;5095056;28;20203;-83
2024/02/01 08:40:30;;;;;;;0.30;0.20;;;5.30;99.90;;;;;;5098061;28;20195;-83
2024/02/01 08:42:59;;;;;;;0.30;0.20;;;5.30;99.90;;;;;;5095961;28;20192;-83
2024/02/01 08:45:27;;;;;;;0.30;0.20;;;5.20;99.90;;;;;;5099368;28;20448;-80
2024/02/01 08:48:00;;;;;;;0.30;0.20;;;5.20;99.90;;;;;;5088635;28;20513;-83
2024/02/01 08:50:28;;;;;;;0.30;0.20;;;5.30;99.90;;;;;;5096046;28;20168;-83
2024/02/01 08:52:54;;;;;;;0.30;0.20;;;5.40;99.90;;;;;;5095078;28;20195;-80
2024/02/01 08:55:20;;;;;;;0.30;0.20;;;5.50;99.90;;;;;;5113611;27;20552;-83
2024/02/01 08:57:46;;;;;;;0.30;0.20;;;5.70;99.90;;;;;;5097071;28;20455;-85
2024/02/01 09:00:26;;;;;;;0.30;0.20;;;5.80;99.90;;;;;;5089912;28;20175;-86
2024/02/01 09:03:06;;;;;;;0.30;0.25;;;5.90;99.90;;;;;;5086427;28;20450;-83
2024/02/01 09:05:39;;;;;;;0.30;0.20;;;6.10;99.90;;;;;;5092981;28;20192;-82
2024/02/01 09:08:13;;;;;;;0.30;0.20;;;6.10;99.90;;;;;;5112264;27;20265;-85
2024/02/01 09:11:01;;;;;;;0.30;0.20;;;6.10;99.90;;;;;;5104142;28;20184;-85
2024/02/01 09:13:28;;;;;;;0.30;0.20;;;6.00;99.90;;;;;;5102948;28;20254;-84
2024/02/01 09:15:54;;;;;;;0.30;0.20;;;6.10;99.90;;;;;;5103175;28;20570;-85
2024/02/01 09:18:20;;;;;;;0.30;0.20;;;6.20;99.90;;;;;;5110719;27;20250;-82
2024/02/01 09:20:47;;;;;;;0.30;0.20;;;6.30;99.90;;;;;;5100987;28;20718;-85
2024/02/01 09:23:13;;;;;;;0.30;0.20;;;6.40;99.90;;;;;;5096939;28;20200;-83
2024/02/01 09:25:43;;;;;;;0.30;0.20;;;6.60;99.90;;;;;;5095660;28;20184;-83
2024/02/01 09:28:13;;;;;;;0.30;0.20;;;6.60;99.90;;;;;;5102309;28;20615;-81
2024/02/01 09:30:45;;;;;;;0.30;0.20;;;6.70;99.90;;;;;;5103783;27;20191;-84
2024/02/01 09:33:19;;;;;;;0.40;0.20;;;6.90;99.90;;;;;;5098045;28;20470;-81
2024/02/01 09:35:46;;;;;;;0.30;0.20;;;6.90;99.90;;;;;;5101470;27;20642;-84
2024/02/01 09:38:12;;;;;;;0.40;0.30;;;6.90;99.90;;;;;;5092126;28;20688;-84
2024/02/01 09:40:44;;;;;;;0.30;0.20;;;6.90;99.90;;;;;;5099367;28;20610;-84
2024/02/01 09:43:17;;;;;;;0.30;0.20;;;7.00;99.90;;;;;;5092750;28;20300;-81
2024/02/01 09:45:44;;;;;;;0.30;0.20;;;6.90;99.90;;;;;;5082223;28;20970;-81
2024/02/01 09:48:15;;;;;;;0.30;0.20;;;6.90;99.90;;;;;;5101004;27;20303;-84
2024/02/01 09:50:50;;;;;;;0.30;0.28;;;7.00;99.90;;;;;;5085146;28;20207;-84
2024/02/01 09:53:21;;;;;;;0.30;0.20;;;7.10;99.90;;;;;;5090043;28;20574;-84
2024/02/01 09:55:50;;;;;;;0.30;0.20;;;7.10;99.90;;;;;;5091254;28;20403;-81
2024/02/01 09:58:17;;;;;;;0.30;0.30;;;7.10;99.90;;;;;;5088780;28;20200;-84
2024/02/01 10:00:44;;;;;;;0.30;0.20;;;7.00;99.90;;;;;;5092582;28;20351;-83
2024/02/01 10:03:15;;;;;;;0.40;0.40;;;7.00;99.90;;;;;;5094592;28;20211;-83
2024/02/01 10:05:42;;;;;;;0.30;0.20;;;7.00;99.90;;;;;;5110100;28;20241;-80
2024/02/01 10:08:10;;;;;;;0.30;0.20;;;7.10;99.90;;;;;;5110281;28;20327;-81
2024/02/01 10:10:38;;;;;;;0.35;0.22;;;7.20;99.90;;;;;;5101731;28;20675;-80
2024/02/01 10:13:06;;;;;;;0.30;0.20;;;7.20;99.90;;;;;;5102629;28;20196;-83
2024/02/01 10:15:33;;;;;;;0.30;0.20;;;7.20;99.90;;;;;;5102156;28;20222;-83
2024/02/01 10:17:59;;;;;;;0.30;0.20;;;7.10;99.90;;;;;;5101228;28;20216;-83
2024/02/01 10:20:37;;;;;;;0.68;0.68;;;7.00;99.90;;;;;;5095951;28;20208;-80
2024/02/01 10:23:10;;;;;;;1.20;1.15;;;7.00;99.90;;;;;;5094830;28;20279;-83
2024/02/01 10:25:48;;;;;;;0.43;0.43;;;6.90;99.90;;;;;;5114414;28;20228;-81
2024/02/01 10:28:17;;;;;;;0.30;0.20;;;6.90;99.90;;;;;;5098541;28;20758;-80
2024/02/01 10:30:43;;;;;;;0.30;0.20;;;6.90;99.90;;;;;;5109822;27;20184;-83
2024/02/01 10:33:11;;;;;;;0.30;0.20;;;6.90;99.90;;;;;;5094064;28;20211;-83
2024/02/01 10:35:37;;;;;;;0.70;0.70;;;7.00;99.90;;;;;;5110907;28;20176;-81
2024/02/01 10:38:11;;;;;;;0.30;0.20;;;7.00;99.90;;;;;;5094794;28;20692;-80
2024/02/01 10:40:53;;;;;;;0.40;0.30;;;7.00;99.90;;;;;;5089020;28;20222;-82
2024/02/01 10:43:27;;;;;;;0.30;0.30;;;7.10;99.90;;;;;;5082640;28;20661;-82
2024/02/01 10:46:06;;;;;;;1.20;1.20;;;7.30;99.90;;;;;;5075531;28;20191;-80
2024/02/01 10:49:06;;;;;;;0.30;0.20;;;7.50;99.90;;;;;;5079234;28;20253;-83
2024/02/01 10:51:33;;;;;;;0.30;0.20;;;7.60;99.90;;;;;;5112612;27;20222;-80
2024/02/01 10:54:01;;;;;;;1.92;1.80;;;7.70;99.90;;;;;;5100619;28;20520;-83
2024/02/01 10:56:29;;;;;;;0.40;0.40;;;7.80;99.90;;;;;;5102532;28;20186;-80
2024/02/01 10:59:07;;;;;;;0.30;0.20;;;7.80;99.90;;;;;;5099852;28;20366;-79
2024/02/01 11:01:33;;;;;;;0.38;0.35;;;7.90;99.90;;;;;;5108432;27;20309;-80
2024/02/01 11:04:01;;;;;;;0.30;0.20;;;8.00;99.90;;;;;;5118364;27;20643;-80
2024/02/01 11:06:27;;;;;;;4.85;4.55;;;8.10;99.90;;;;;;5087267;28;20785;-80
2024/02/01 11:08:55;;;;;;;0.82;0.82;;;8.30;99.90;;;;;;5099021;28;20217;-83
2024/02/01 11:11:30;;;;;;;0.35;0.32;;;8.40;99.90;;;;;;5096524;28;20233;-83
2024/02/01 11:14:09;;;;;;;0.30;0.20;;;8.50;99.90;;;;;;5099302;28;20199;-80
2024/02/01 11:16:39;;;;;;;0.30;0.30;;;8.70;99.90;;;;;;5100008;28;20175;-83
2024/02/01 11:19:10;;;;;;;0.30;0.20;;;8.70;99.90;;;;;;5092109;28;20337;-83
2024/02/01 11:21:36;;;;;;;0.30;0.20;;;8.70;99.90;;;;;;5098243;28;20401;-80
2024/02/01 11:24:06;;;;;;;3.70;2.53;;;8.80;99.90;;;;;;5097882;28;20786;-82
2024/02/01 11:26:39;;;;;;;0.40;0.32;;;8.80;99.90;;;;;;5096794;28;20567;-80
2024/02/01 11:29:12;;;;;;;0.77;0.77;;;8.90;99.90;;;;;;5100737;28;20204;-83
2024/02/01 11:31:48;;;;;;;0.30;0.20;;;8.80;99.90;;;;;;5086991;28;20475;-84
2024/02/01 11:34:15;;;;;;;0.30;0.20;;;8.80;99.90;;;;;;5096435;28;20652;-84
2024/02/01 11:36:43;;;;;;;0.30;0.20;;;8.80;99.90;;;;;;5098224;28;20183;-84
2024/02/01 11:39:11;;;;;;;34.90;32.90;;;8.70;99.90;;;;;;5096046;28;20203;-81
2024/02/01 11:41:37;;;;;;;0.70;0.70;;;8.80;99.90;;;;;;5093406;28;20243;-80
2024/02/01 11:44:04;;;;;;;0.30;0.20;;;8.80;99.90;;;;;;5096954;28;20291;-81
2024/02/01 11:46:30;;;;;;;5.60;3.70;;;8.80;99.90;;;;;;5100927;28;20569;-84
2024/02/01 11:48:56;;;;;;;0.30;0.20;;;8.90;99.90;;;;;;5120690;27;20205;-81
2024/02/01 11:51:24;;;;;;;3.20;3.00;;;8.90;99.90;;;;;;5120474;27;20180;-84
2024/02/01 11:53:51;;;;;;;1.08;1.08;;;9.00;99.90;;;;;;5092027;28;20432;-82
2024/02/01 11:56:21;;;;;;;3.78;3.45;;;9.00;99.90;;;;;;5090936;28;20392;-84
2024/02/01 11:58:47;;;;;;;2.03;1.98;;;9.10;99.90;;;;;;5094029;28;20783;-81
2024/02/01 12:01:14;;;;;;;2.05;1.95;;;9.30;99.90;;;;;;5092150;28;20765;-81
2024/02/01 12:03:47;;;;;;;0.30;0.20;;;9.30;99.90;;;;;;5092416;28;20241;-84
2024/02/01 12:06:14;;;;;;;0.30;0.20;;;9.40;99.90;;;;;;5094724;28;20180;-81
2024/02/01 12:08:39;;;;;;;0.30;0.20;;;9.40;99.90;;;;;;5089838;28;20367;-84
2024/02/01 12:11:07;;;;;;;0.30;0.20;;;9.50;99.90;;;;;;5089386;28;20320;-83
2024/02/01 12:13:33;;;;;;;3.63;3.42;;;9.50;99.90;;;;;;5091002;28;20575;-80
2024/02/01 12:15:59;;;;;;;3.70;3.03;;;9.50;99.90;;;;;;5091771;28;20346;-80
2024/02/01 12:18:24;;;;;;;8.47;5.50;;;9.50;99.90;;;;;;5098309;28;20852;-81
2024/02/01 12:20:50;;;;;;;0.70;0.67;;;9.60;99.90;;;;;;5093138;28;20222;-84
2024/02/01 12:23:16;;;;;;;1.60;1.47;;;9.60;99.90;;;;;;5094362;28;20714;-84
2024/02/01 12:25:47;;;;;;;1.20;1.10;;;9.70;99.90;;;;;;5096721;28;20583;-83
2024/02/01 12:28:13;;;;;;;5.32;5.03;;;9.70;99.90;;;;;;5092003;28;20203;-84
2024/02/01 12:30:44;;;;;;;0.30;0.22;;;9.80;99.90;;;;;;5092319;28;20180;-81
2024/02/01 12:33:12;;;;;;;0.47;0.47;;;9.90;99.90;;;;;;5092447;28;20442;-81
2024/02/01 12:35:39;;;;;;;0.73;0.70;;;9.90;99.90;;;;;;5115968;27;20191;-84
2024/02/01 12:38:05;;;;;;;0.45;0.45;;;9.90;99.90;;;;;;5090260;28;20192;-81
2024/02/01 12:40:32;;;;;;;20.88;10.80;;;9.90;99.90;;;;;;5095123;28;20447;-82
2024/02/01 12:43:04;;;;;;;0.30;0.20;;;9.80;99.90;;;;;;5089350;28;20668;-84
2024/02/01 12:45:31;;;;;;;1.48;1.48;;;9.90;99.90;;;;;;5091084;28;20183;-84
2024/02/01 12:47:56;;;;;;;0.43;0.32;;;9.90;99.90;;;;;;5093591;28;20274;-84
2024/02/01 12:50:22;;;;;;;0.30;0.20;;;9.90;99.90;;;;;;5094864;28;20287;-82
2024/02/01 12:52:49;;;;;;;4.40;4.10;;;10.00;99.90;;;;;;5090349;28;20468;-82
2024/02/01 12:55:17;;;;;;;0.60;0.60;;;10.00;99.90;;;;;;5090342;28;20477;-84
2024/02/01 12:57:43;;;;;;;0.40;0.40;;;10.00;99.90;;;;;;5092472;28;20239;-84
2024/02/01 13:00:12;;;;;;;4.63;4.43;;;10.00;99.90;;;;;;5112109;27;20187;-84
2024/02/01 13:02:39;;;;;;;2.67;2.58;;;10.00;99.90;;;;;;5091212;28;20219;-82
2024/02/01 13:05:09;;;;;;;5.32;3.40;;;10.10;99.90;;;;;;5091144;27;20547;-82
2024/02/01 13:07:35;;;;;;;3.38;3.17;;;10.20;99.90;;;;;;5114739;27;20231;-81
2024/02/01 13:10:05;;;;;;;0.43;0.43;;;10.20;99.90;;;;;;5079087;28;20177;-83
2024/02/01 13:12:35;;;;;;;0.30;0.20;;;10.30;99.90;;;;;;5079538;28;20721;-83
2024/02/01 13:15:05;;;;;;;0.68;0.68;;;10.30;99.90;;;;;;5079139;28;20469;-83
2024/02/01 13:17:31;;;;;;;0.30;0.20;;;10.40;99.90;;;;;;5078211;28;20184;-83
2024/02/01 13:19:57;;;;;;;0.30;0.20;;;10.40;99.90;;;;;;5087390;28;20237;-80
2024/02/01 13:22:25;;;;;;;0.50;0.50;;;10.30;99.90;;;;;;5096976;28;20208;-83
2024/02/01 13:24:51;;;;;;;0.30;0.20;;;10.30;99.90;;;;;;5093871;28;20993;-82
2024/02/01 13:27:17;;;;;;;0.30;0.20;;;10.30;99.90;;;;;;5093412;28;20539;-80
2024/02/01 13:29:43;;;;;;;2.10;1.90;;;10.30;99.90;;;;;;5093571;28;20354;-82
2024/02/01 13:32:11;;;;;;;1.13;1.13;;;10.40;99.90;;;;;;5091201;28;20454;-80
2024/02/01 13:34:39;;;;;;;0.50;0.47;;;10.50;99.90;;;;;;5097149;27;20207;-80
2024/02/01 13:37:06;;;;;;;0.30;0.20;;;10.50;99.90;;;;;;5090029;28;20319;-83
2024/02/01 13:39:36;;;;;;;5.18;1.77;;;10.60;99.90;;;;;;5094567;27;20709;-80
2024/02/01 13:42:05;;;;;;;0.30;0.20;;;10.60;99.90;;;;;;5088324;28;20208;-82
2024/02/01 13:44:32;;;;;;;0.88;0.88;;;10.70;99.90;;;;;;5088734;28;20546;-84
2024/02/01 13:47:01;;;;;;;0.30;0.22;;;10.80;99.90;;;;;;5105368;27;20208;-81
2024/02/01 13:49:27;;;;;;;0.30;0.20;;;10.80;99.90;;;;;;5100979;27;20204;-83
2024/02/01 13:51:53;;;;;;;1.42;1.42;;;10.80;99.90;;;;;;5092309;28;20420;-82
2024/02/01 13:54:19;;;;;;;8.70;7.85;;;10.80;99.90;;;;;;5092564;28;20207;-80
2024/02/01 13:56:44;;;;;;;2.10;2.00;;;10.90;99.90;;;;;;5091292;28;20852;-86
2024/02/01 13:59:11;;;;;;;0.30;0.20;;;10.90;99.90;;;;;;5089292;28;20504;-80
2024/02/01 14:01:36;;;;;;;25.03;3.13;;;11.00;99.90;;;;;;5098573;28;20677;-80
2024/02/01 14:04:03;;;;;;;0.30;0.30;;;11.00;99.90;;;;;;5116847;28;20496;-83